Quelimane Airport

Airport
ICAO code: 
FQQL
IATA Code: 
UEL
Summary
ICAO Region: 
AFI
Territory: 
Location: 
Quelimane, Zambezia Province
Serving: 
Quelimane
Elevation: 
36 ft
Coordinates: 
Aerial View: 
17° 51' 19.537" S, 36° 52' 6.917" E
Metar
Observation
FQQL 300200Z 00000KT 9999 FEW020 18/17 Q1012
Station
Quelimane
Date/Time
2021-11-30 02:00:00
Wind direction
Wind speed
00 kts
Lowest cloud amount
few clouds
Temperature
18°C
Dew point
17°C
Humidity
93%
QNH
1012 hPa
Weather condition
n/a

Description

Airport 2 km north west of Quelimane Mozambique.

Climatology

Tropical Savanna climate (Köppen climate classification Aw) - monthly mean temperature above 18°C in every month of the year and a pronounced dry season.

Runways

Designator Length Width Surface Rops
9/27 908 30 GVL No/No
18/36 1800 45 ASP No/No
Airport map: 
Aerial View: 

SKYbrary Partners:

Safety knowledge contributed by: